VLG18MA LEVC-LEBL
Flight info
| Callsign | VLG18MA |
|---|---|
| Flight time | 0h 36m |
| Altitude | 22000 |
| Route | SOPET N608 MATEX |
| Aircraft | A320/M-SDE3FGHIRWY/LB1 |
Departure
| Time | 2026-05-07 05:12 |
|---|---|
| Airport | Valencia Airport (LEVC) |
Arrival
| Time | 2026-05-07 05:48 |
|---|---|
| Airport | Josep Tarradellas Barcelona-El Prat Airport (LEBL) |
| Time | Latitude | Longitude | Altitude | Speed | Heading |
|---|---|---|---|---|---|
| 2026-05-07 04:50 | 39.49023 | -0.47283 | 216 ft | 0 kts | 18° |
| 2026-05-07 05:03 | 39.49014 | -0.47287 | 215 ft | 3 kts | 21° |
| 2026-05-07 05:04 | 39.48995 | -0.47298 | 217 ft | 3 kts | 30° |
| 2026-05-07 05:04 | 39.48978 | -0.47312 | 210 ft | 3 kts | 40° |
| 2026-05-07 05:04 | 39.48964 | -0.47330 | 216 ft | 3 kts | 57° |
| 2026-05-07 05:04 | 39.48956 | -0.47352 | 214 ft | 3 kts | 88° |
| 2026-05-07 05:05 | 39.48957 | -0.47369 | 211 ft | 0 kts | 116° |
| 2026-05-07 05:08 | 39.48955 | -0.47363 | 209 ft | 3 kts | 116° |
| 2026-05-07 05:08 | 39.48934 | -0.47307 | 211 ft | 11 kts | 116° |
| 2026-05-07 05:09 | 39.48867 | -0.47230 | 212 ft | 16 kts | 156° |
| 2026-05-07 05:09 | 39.48755 | -0.47154 | 213 ft | 21 kts | 135° |
| 2026-05-07 05:09 | 39.48682 | -0.46975 | 213 ft | 25 kts | 116° |
| 2026-05-07 05:09 | 39.48596 | -0.46783 | 212 ft | 22 kts | 132° |
| 2026-05-07 05:10 | 39.48471 | -0.46691 | 210 ft | 19 kts | 176° |
| 2026-05-07 05:10 | 39.48412 | -0.46789 | 213 ft | 15 kts | 294° |
| 2026-05-07 05:10 | 39.48421 | -0.46810 | 217 ft | 0 kts | 297° |
| 2026-05-07 05:11 | 39.48422 | -0.46814 | 216 ft | 3 kts | 297° |
| 2026-05-07 05:11 | 39.48510 | -0.47042 | 214 ft | 64 kts | 295° |
| 2026-05-07 05:11 | 39.48803 | -0.47825 | 213 ft | 126 kts | 296° |
| 2026-05-07 05:11 | 39.49242 | -0.48996 | 460 ft | 148 kts | 296° |
| 2026-05-07 05:12 | 39.49676 | -0.50174 | 1096 ft | 145 kts | 296° |
| 2026-05-07 05:12 | 39.50120 | -0.51351 | 1640 ft | 149 kts | 300° |
| 2026-05-07 05:12 | 39.50650 | -0.52620 | 1897 ft | 171 kts | 300° |
| 2026-05-07 05:12 | 39.51259 | -0.54062 | 2216 ft | 194 kts | 300° |
| 2026-05-07 05:13 | 39.51940 | -0.55688 | 2542 ft | 217 kts | 299° |
| 2026-05-07 05:13 | 39.52865 | -0.57294 | 2952 ft | 236 kts | 319° |
| 2026-05-07 05:13 | 39.53759 | -0.58146 | 3337 ft | 244 kts | 333° |
| 2026-05-07 05:13 | 39.55411 | -0.58897 | 3898 ft | 262 kts | 354° |
| 2026-05-07 05:14 | 39.57241 | -0.58792 | 4757 ft | 266 kts | 17° |
| 2026-05-07 05:14 | 39.58925 | -0.57804 | 5659 ft | 269 kts | 38° |
| 2026-05-07 05:14 | 39.60196 | -0.56026 | 6545 ft | 271 kts | 61° |
| 2026-05-07 05:14 | 39.60848 | -0.53724 | 7391 ft | 275 kts | 77° |
| 2026-05-07 05:15 | 39.61333 | -0.51304 | 8263 ft | 279 kts | 77° |
| 2026-05-07 05:15 | 39.61821 | -0.48843 | 9109 ft | 285 kts | 77° |
| 2026-05-07 05:15 | 39.62320 | -0.46332 | 9928 ft | 290 kts | 76° |
| 2026-05-07 05:15 | 39.62839 | -0.43730 | 10391 ft | 309 kts | 76° |
| 2026-05-07 05:16 | 39.63396 | -0.40933 | 10635 ft | 332 kts | 76° |
| 2026-05-07 05:16 | 39.63992 | -0.37945 | 10966 ft | 350 kts | 76° |
| 2026-05-07 05:16 | 39.64608 | -0.34858 | 11581 ft | 357 kts | 76° |
| 2026-05-07 05:16 | 39.65235 | -0.31720 | 12271 ft | 362 kts | 76° |
| 2026-05-07 05:17 | 39.65872 | -0.28538 | 12958 ft | 367 kts | 76° |
| 2026-05-07 05:17 | 39.66522 | -0.25304 | 13648 ft | 372 kts | 75° |
| 2026-05-07 05:17 | 39.67442 | -0.22149 | 14256 ft | 377 kts | 63° |
| 2026-05-07 05:17 | 39.68825 | -0.19245 | 14871 ft | 381 kts | 52° |
| 2026-05-07 05:18 | 39.70625 | -0.16703 | 15483 ft | 384 kts | 44° |
| 2026-05-07 05:18 | 39.72556 | -0.14272 | 16094 ft | 388 kts | 44° |
| 2026-05-07 05:18 | 39.74501 | -0.11813 | 16702 ft | 392 kts | 44° |
| 2026-05-07 05:18 | 39.76464 | -0.09321 | 17332 ft | 396 kts | 44° |
| 2026-05-07 05:19 | 39.78435 | -0.06807 | 17971 ft | 400 kts | 44° |
| 2026-05-07 05:19 | 39.80429 | -0.04262 | 18551 ft | 404 kts | 44° |
| 2026-05-07 05:19 | 39.82599 | -0.01907 | 19038 ft | 410 kts | 33° |
| 2026-05-07 05:19 | 39.85093 | -0.00071 | 19564 ft | 413 kts | 22° |
| 2026-05-07 05:20 | 39.87775 | 0.01158 | 20111 ft | 416 kts | 13° |
| 2026-05-07 05:20 | 39.90577 | 0.02180 | 20662 ft | 421 kts | 13° |
| 2026-05-07 05:20 | 39.93405 | 0.03220 | 21184 ft | 425 kts | 13° |
| 2026-05-07 05:20 | 39.96266 | 0.04281 | 21690 ft | 429 kts | 13° |
| 2026-05-07 05:21 | 39.99148 | 0.05358 | 21926 ft | 432 kts | 14° |
| 2026-05-07 05:21 | 40.05086 | 0.07576 | 21983 ft | 454 kts | 14° |
| 2026-05-07 05:21 | 40.08138 | 0.08713 | 21999 ft | 457 kts | 14° |
| 2026-05-07 05:22 | 40.11195 | 0.09853 | 22001 ft | 457 kts | 14° |
| 2026-05-07 05:22 | 40.14260 | 0.10997 | 22003 ft | 457 kts | 14° |
| 2026-05-07 05:22 | 40.17312 | 0.12136 | 22002 ft | 457 kts | 14° |
| 2026-05-07 05:22 | 40.20375 | 0.13281 | 22003 ft | 457 kts | 14° |
| 2026-05-07 05:23 | 40.23439 | 0.14432 | 22002 ft | 457 kts | 14° |
| 2026-05-07 05:23 | 40.26497 | 0.15580 | 22010 ft | 457 kts | 14° |
| 2026-05-07 05:23 | 40.29547 | 0.16726 | 21999 ft | 456 kts | 14° |
| 2026-05-07 05:23 | 40.32596 | 0.17873 | 21996 ft | 456 kts | 14° |
| 2026-05-07 05:24 | 40.35646 | 0.19018 | 21992 ft | 455 kts | 14° |
| 2026-05-07 05:24 | 40.38692 | 0.20163 | 21988 ft | 455 kts | 14° |
| 2026-05-07 05:24 | 40.41745 | 0.21309 | 21985 ft | 455 kts | 14° |
| 2026-05-07 05:24 | 40.44790 | 0.22452 | 21981 ft | 455 kts | 14° |
| 2026-05-07 05:25 | 40.47832 | 0.23597 | 21991 ft | 455 kts | 14° |
| 2026-05-07 05:25 | 40.50870 | 0.24767 | 21984 ft | 455 kts | 17° |
| 2026-05-07 05:25 | 40.53799 | 0.26410 | 21981 ft | 457 kts | 27° |
| 2026-05-07 05:25 | 40.56483 | 0.28648 | 21985 ft | 458 kts | 37° |
| 2026-05-07 05:26 | 40.58872 | 0.31428 | 21976 ft | 459 kts | 46° |
| 2026-05-07 05:26 | 40.60988 | 0.34568 | 21975 ft | 459 kts | 49° |
| 2026-05-07 05:26 | 40.63084 | 0.37736 | 21975 ft | 459 kts | 49° |
| 2026-05-07 05:26 | 40.65183 | 0.40907 | 21971 ft | 459 kts | 49° |
| 2026-05-07 05:27 | 40.67280 | 0.44077 | 21969 ft | 459 kts | 49° |
| 2026-05-07 05:27 | 40.69379 | 0.47253 | 21973 ft | 459 kts | 49° |
| 2026-05-07 05:27 | 40.71475 | 0.50428 | 21975 ft | 459 kts | 49° |
| 2026-05-07 05:27 | 40.73570 | 0.53604 | 21976 ft | 459 kts | 49° |
| 2026-05-07 05:28 | 40.75670 | 0.56787 | 21985 ft | 460 kts | 49° |
| 2026-05-07 05:28 | 40.77765 | 0.59971 | 21987 ft | 460 kts | 49° |
| 2026-05-07 05:28 | 40.79861 | 0.63163 | 21986 ft | 460 kts | 49° |
| 2026-05-07 05:28 | 40.81950 | 0.66353 | 21987 ft | 460 kts | 49° |
| 2026-05-07 05:29 | 40.84039 | 0.69548 | 21986 ft | 460 kts | 49° |
| 2026-05-07 05:29 | 40.86127 | 0.72741 | 21986 ft | 459 kts | 49° |
| 2026-05-07 05:29 | 40.88220 | 0.75939 | 21984 ft | 459 kts | 49° |
| 2026-05-07 05:29 | 40.90316 | 0.79142 | 21971 ft | 460 kts | 49° |
| 2026-05-07 05:30 | 40.92406 | 0.82335 | 21927 ft | 455 kts | 49° |
| 2026-05-07 05:30 | 40.94412 | 0.85405 | 21658 ft | 439 kts | 49° |
| 2026-05-07 05:30 | 40.96388 | 0.88433 | 21398 ft | 426 kts | 49° |
| 2026-05-07 05:30 | 40.98300 | 0.91370 | 21140 ft | 416 kts | 49° |
| 2026-05-07 05:31 | 41.00172 | 0.94248 | 20883 ft | 407 kts | 49° |
| 2026-05-07 05:31 | 41.02000 | 0.97064 | 20632 ft | 401 kts | 49° |
| 2026-05-07 05:31 | 41.03805 | 0.99847 | 20382 ft | 398 kts | 49° |
| 2026-05-07 05:31 | 41.05605 | 1.02622 | 20134 ft | 395 kts | 49° |
| 2026-05-07 05:32 | 41.07392 | 1.05381 | 19890 ft | 394 kts | 49° |
| 2026-05-07 05:32 | 41.09174 | 1.08134 | 19643 ft | 392 kts | 49° |
| 2026-05-07 05:32 | 41.10923 | 1.10840 | 19403 ft | 390 kts | 49° |
| 2026-05-07 05:32 | 41.12681 | 1.13564 | 19168 ft | 388 kts | 49° |
| 2026-05-07 05:33 | 41.14410 | 1.16304 | 18918 ft | 386 kts | 52° |
| 2026-05-07 05:33 | 41.15951 | 1.19220 | 18691 ft | 385 kts | 55° |
| 2026-05-07 05:33 | 41.17483 | 1.22177 | 18455 ft | 383 kts | 54° |
| 2026-05-07 05:33 | 41.18989 | 1.25083 | 18203 ft | 381 kts | 55° |
| 2026-05-07 05:34 | 41.20467 | 1.27944 | 17935 ft | 380 kts | 55° |
| 2026-05-07 05:34 | 41.21975 | 1.30866 | 17667 ft | 377 kts | 55° |
| 2026-05-07 05:34 | 41.23457 | 1.33734 | 17395 ft | 376 kts | 55° |
| 2026-05-07 05:34 | 41.24910 | 1.36549 | 17130 ft | 374 kts | 55° |
| 2026-05-07 05:35 | 41.26376 | 1.39401 | 16874 ft | 372 kts | 55° |
| 2026-05-07 05:35 | 41.27832 | 1.42236 | 16613 ft | 370 kts | 55° |
| 2026-05-07 05:35 | 41.29279 | 1.45058 | 16359 ft | 368 kts | 55° |
| 2026-05-07 05:35 | 41.30717 | 1.47865 | 16104 ft | 367 kts | 55° |
| 2026-05-07 05:36 | 41.32153 | 1.50666 | 15850 ft | 365 kts | 55° |
| 2026-05-07 05:36 | 41.33578 | 1.53444 | 15511 ft | 361 kts | 57° |
| 2026-05-07 05:36 | 41.34784 | 1.56361 | 14994 ft | 360 kts | 66° |
| 2026-05-07 05:36 | 41.35759 | 1.59424 | 14459 ft | 359 kts | 67° |
| 2026-05-07 05:37 | 41.36729 | 1.62482 | 13941 ft | 358 kts | 67° |
| 2026-05-07 05:37 | 41.37683 | 1.65490 | 13374 ft | 357 kts | 67° |
| 2026-05-07 05:37 | 41.38642 | 1.68515 | 12898 ft | 352 kts | 67° |
| 2026-05-07 05:37 | 41.39592 | 1.71521 | 12395 ft | 350 kts | 67° |
| 2026-05-07 05:38 | 41.40529 | 1.74487 | 11928 ft | 346 kts | 66° |
| 2026-05-07 05:38 | 41.41461 | 1.77437 | 11429 ft | 344 kts | 66° |
| 2026-05-07 05:38 | 41.42393 | 1.80371 | 10957 ft | 342 kts | 66° |
| 2026-05-07 05:38 | 41.43306 | 1.83254 | 10748 ft | 331 kts | 66° |
| 2026-05-07 05:39 | 41.44172 | 1.86002 | 10532 ft | 312 kts | 66° |
| 2026-05-07 05:39 | 41.44998 | 1.88630 | 10042 ft | 304 kts | 66° |
| 2026-05-07 05:39 | 41.45804 | 1.91195 | 9719 ft | 293 kts | 66° |
| 2026-05-07 05:39 | 41.46609 | 1.93759 | 9347 ft | 302 kts | 66° |
| 2026-05-07 05:40 | 41.47416 | 1.96333 | 8987 ft | 299 kts | 66° |
| 2026-05-07 05:40 | 41.48220 | 1.98909 | 8568 ft | 300 kts | 66° |
| 2026-05-07 05:40 | 41.49012 | 2.01454 | 8259 ft | 295 kts | 66° |
| 2026-05-07 05:40 | 41.49794 | 2.03963 | 7659 ft | 292 kts | 67° |
| 2026-05-07 05:41 | 41.50558 | 2.06415 | 7067 ft | 288 kts | 68° |
| 2026-05-07 05:41 | 41.51030 | 2.08974 | 6528 ft | 282 kts | 87° |
| 2026-05-07 05:41 | 41.50850 | 2.11545 | 6086 ft | 277 kts | 106° |
| 2026-05-07 05:41 | 41.50072 | 2.13876 | 5557 ft | 274 kts | 124° |
| 2026-05-07 05:42 | 41.48865 | 2.15861 | 4791 ft | 277 kts | 132° |
| 2026-05-07 05:42 | 41.47597 | 2.17816 | 3993 ft | 279 kts | 131° |
| 2026-05-07 05:42 | 41.46326 | 2.19783 | 3236 ft | 280 kts | 131° |
| 2026-05-07 05:42 | 41.45055 | 2.21751 | 2696 ft | 275 kts | 130° |
| 2026-05-07 05:43 | 41.43859 | 2.23604 | 2557 ft | 253 kts | 130° |
| 2026-05-07 05:43 | 41.42694 | 2.25226 | 2438 ft | 233 kts | 141° |
| 2026-05-07 05:43 | 41.41317 | 2.26278 | 2337 ft | 227 kts | 159° |
| 2026-05-07 05:43 | 41.39842 | 2.26732 | 2295 ft | 206 kts | 169° |
| 2026-05-07 05:44 | 41.38468 | 2.26912 | 2295 ft | 194 kts | 184° |
| 2026-05-07 05:44 | 41.37203 | 2.26496 | 2308 ft | 186 kts | 203° |
| 2026-05-07 05:44 | 41.36124 | 2.25586 | 2303 ft | 183 kts | 221° |
| 2026-05-07 05:44 | 41.35322 | 2.24273 | 2214 ft | 183 kts | 241° |
| 2026-05-07 05:45 | 41.34793 | 2.22759 | 2022 ft | 183 kts | 245° |
| 2026-05-07 05:45 | 41.34269 | 2.21217 | 1793 ft | 182 kts | 245° |
| 2026-05-07 05:45 | 41.33747 | 2.19684 | 1543 ft | 182 kts | 245° |
| 2026-05-07 05:45 | 41.33223 | 2.18144 | 1334 ft | 179 kts | 246° |
| 2026-05-07 05:46 | 41.32734 | 2.16709 | 1072 ft | 167 kts | 246° |
| 2026-05-07 05:46 | 41.32259 | 2.15320 | 843 ft | 159 kts | 247° |
| 2026-05-07 05:46 | 41.31817 | 2.14024 | 664 ft | 150 kts | 248° |
| 2026-05-07 05:46 | 41.31400 | 2.12801 | 461 ft | 142 kts | 250° |
| 2026-05-07 05:47 | 41.31007 | 2.11621 | 263 ft | 138 kts | 251° |
| 2026-05-07 05:47 | 41.30615 | 2.10483 | 83 ft | 135 kts | 250° |
| 2026-05-07 05:47 | 41.30255 | 2.09428 | 20 ft | 109 kts | 246° |
| 2026-05-07 05:47 | 41.30017 | 2.08717 | 23 ft | 59 kts | 246° |
| 2026-05-07 05:48 | 41.29899 | 2.08421 | 28 ft | 30 kts | 237° |
| 2026-05-07 05:48 | 41.29749 | 2.08231 | 18 ft | 26 kts | 216° |
| 2026-05-07 05:48 | 41.29643 | 2.08205 | 17 ft | 13 kts | 147° |
| 2026-05-07 05:48 | 41.29552 | 2.08265 | 16 ft | 16 kts | 155° |
| 2026-05-07 05:49 | 41.29456 | 2.08324 | 17 ft | 16 kts | 155° |
| 2026-05-07 05:49 | 41.29352 | 2.08386 | 19 ft | 17 kts | 156° |
| 2026-05-07 05:49 | 41.29238 | 2.08449 | 21 ft | 18 kts | 171° |
| 2026-05-07 05:49 | 41.29111 | 2.08406 | 19 ft | 20 kts | 199° |
| 2026-05-07 05:50 | 41.29020 | 2.08274 | 19 ft | 20 kts | 244° |
| 2026-05-07 05:50 | 41.28964 | 2.08111 | 19 ft | 19 kts | 246° |
| 2026-05-07 05:50 | 41.28915 | 2.07963 | 19 ft | 12 kts | 245° |
| 2026-05-07 05:50 | 41.28872 | 2.07857 | 19 ft | 11 kts | 252° |
| 2026-05-07 05:51 | 41.28908 | 2.07804 | 19 ft | 7 kts | 329° |
| 2026-05-07 05:51 | 41.28939 | 2.07785 | 19 ft | 1 kts | 338° |
| 2026-05-07 05:51 | 41.28943 | 2.07782 | 19 ft | 0 kts | 336° |